sensor_id;sensor_type;location;lat;lon;timestamp;pressure;altitude;pressure_sealevel;temperature;humidity
59009;BME280;44794;42.652;23.318;2023-02-19T00:01:15;94819.16;;;5.53;70.28
59009;BME280;44794;42.652;23.318;2023-02-19T00:03:41;94806.78;;;5.59;70.76
59009;BME280;44794;42.652;23.318;2023-02-19T00:06:09;94808.03;;;5.85;69.50
59009;BME280;44794;42.652;23.318;2023-02-19T00:08:36;94801.44;;;5.79;69.45
59009;BME280;44794;42.652;23.318;2023-02-19T00:11:04;94811.03;;;5.60;70.73
59009;BME280;44794;42.652;23.318;2023-02-19T00:13:34;94816.16;;;5.60;70.82
59009;BME280;44794;42.652;23.318;2023-02-19T00:16:13;94801.44;;;5.47;71.39
59009;BME280;44794;42.652;23.318;2023-02-19T00:18:40;94794.69;;;5.44;71.58
59009;BME280;44794;42.652;23.318;2023-02-19T00:21:05;94798.06;;;5.29;72.53
59009;BME280;44794;42.652;23.318;2023-02-19T00:23:32;94804.25;;;5.25;73.20
59009;BME280;44794;42.652;23.318;2023-02-19T00:26:07;94790.03;;;5.18;73.26
59009;BME280;44794;42.652;23.318;2023-02-19T00:28:34;94792.72;;;5.32;72.84
59009;BME280;44794;42.652;23.318;2023-02-19T00:33:39;94795.78;;;5.07;74.05
59009;BME280;44794;42.652;23.318;2023-02-19T00:36:05;94777.31;;;5.16;74.08
59009;BME280;44794;42.652;23.318;2023-02-19T00:38:34;94776.78;;;5.26;73.57
59009;BME280;44794;42.652;23.318;2023-02-19T00:41:00;94787.75;;;5.29;73.50
59009;BME280;44794;42.652;23.318;2023-02-19T00:43:25;94780.19;;;5.26;73.40
59009;BME280;44794;42.652;23.318;2023-02-19T00:45:51;94787.59;;;5.32;72.80
59009;BME280;44794;42.652;23.318;2023-02-19T00:48:16;94780.56;;;5.19;73.38
59009;BME280;44794;42.652;23.318;2023-02-19T00:50:42;94779.28;;;5.11;74.34
59009;BME280;44794;42.652;23.318;2023-02-19T00:53:08;94765.91;;;5.04;74.72
59009;BME280;44794;42.652;23.318;2023-02-19T00:55:34;94769.50;;;5.00;75.08
59009;BME280;44794;42.652;23.318;2023-02-19T00:57:59;94762.19;;;4.93;75.36
59009;BME280;44794;42.652;23.318;2023-02-19T01:00:24;94746.66;;;4.94;75.53
59009;BME280;44794;42.652;23.318;2023-02-19T01:02:50;94762.19;;;4.76;76.11
59009;BME280;44794;42.652;23.318;2023-02-19T01:05:15;94747.13;;;4.85;76.43
59009;BME280;44794;42.652;23.318;2023-02-19T01:07:41;94740.16;;;4.87;76.17
59009;BME280;44794;42.652;23.318;2023-02-19T01:10:06;94762.19;;;4.93;76.17
59009;BME280;44794;42.652;23.318;2023-02-19T01:12:32;94764.75;;;4.93;75.84
59009;BME280;44794;42.652;23.318;2023-02-19T01:14:57;94741.44;;;5.13;74.53
59009;BME280;44794;42.652;23.318;2023-02-19T01:17:23;94757.94;;;5.09;74.49
59009;BME280;44794;42.652;23.318;2023-02-19T01:19:48;94751.38;;;5.03;74.59
59009;BME280;44794;42.652;23.318;2023-02-19T01:22:14;94750.22;;;5.09;74.54
59009;BME280;44794;42.652;23.318;2023-02-19T01:24:39;94750.38;;;5.06;74.65
59009;BME280;44794;42.652;23.318;2023-02-19T01:27:05;94767.16;;;5.13;74.39
59009;BME280;44794;42.652;23.318;2023-02-19T01:29:30;94770.09;;;5.05;74.49
59009;BME280;44794;42.652;23.318;2023-02-19T01:31:56;94760.22;;;5.15;74.15
59009;BME280;44794;42.652;23.318;2023-02-19T01:34:21;94785.50;;;5.07;74.49
59009;BME280;44794;42.652;23.318;2023-02-19T01:36:46;94775.97;;;5.09;74.88
59009;BME280;44794;42.652;23.318;2023-02-19T01:39:12;94797.72;;;5.02;74.98
59009;BME280;44794;42.652;23.318;2023-02-19T01:41:39;94780.19;;;4.93;75.26
59009;BME280;44794;42.652;23.318;2023-02-19T01:46:34;94792.00;;;4.80;76.17
59009;BME280;44794;42.652;23.318;2023-02-19T01:49:09;94816.56;;;4.68;76.65
59009;BME280;44794;42.652;23.318;2023-02-19T01:51:39;94809.59;;;4.70;76.86
59009;BME280;44794;42.652;23.318;2023-02-19T01:54:08;94816.88;;;4.62;77.09
59009;BME280;44794;42.652;23.318;2023-02-19T01:56:35;94834.63;;;4.67;77.18
59009;BME280;44794;42.652;23.318;2023-02-19T01:59:03;94805.28;;;4.88;76.85
59009;BME280;44794;42.652;23.318;2023-02-19T02:01:29;94815.66;;;4.69;77.12
59009;BME280;44794;42.652;23.318;2023-02-19T02:03:56;94809.38;;;4.58;77.25
59009;BME280;44794;42.652;23.318;2023-02-19T02:06:37;94800.19;;;4.52;77.75
59009;BME280;44794;42.652;23.318;2023-02-19T02:09:05;94793.38;;;4.51;77.53
59009;BME280;44794;42.652;23.318;2023-02-19T02:11:51;94785.59;;;4.53;77.43
59009;BME280;44794;42.652;23.318;2023-02-19T02:14:19;94791.97;;;4.63;76.97
59009;BME280;44794;42.652;23.318;2023-02-19T02:17:14;94793.03;;;4.59;76.63
59009;BME280;44794;42.652;23.318;2023-02-19T02:25:44;94807.22;;;4.49;77.67
59009;BME280;44794;42.652;23.318;2023-02-19T02:31:03;94803.19;;;4.79;75.24
59009;BME280;44794;42.652;23.318;2023-02-19T02:36:07;94802.38;;;4.60;76.87
59009;BME280;44794;42.652;23.318;2023-02-19T02:38:37;94817.25;;;4.72;76.03
59009;BME280;44794;42.652;23.318;2023-02-19T02:41:04;94806.06;;;4.73;75.88
59009;BME280;44794;42.652;23.318;2023-02-19T02:43:30;94824.88;;;4.73;75.87
59009;BME280;44794;42.652;23.318;2023-02-19T02:45:55;94803.53;;;4.71;75.96
59009;BME280;44794;42.652;23.318;2023-02-19T02:48:26;94804.97;;;4.60;76.40
59009;BME280;44794;42.652;23.318;2023-02-19T02:53:34;94801.66;;;4.58;76.91
59009;BME280;44794;42.652;23.318;2023-02-19T02:56:19;94804.75;;;4.47;77.17
59009;BME280;44794;42.652;23.318;2023-02-19T02:58:47;94793.09;;;4.57;76.92
59009;BME280;44794;42.652;23.318;2023-02-19T03:01:18;94792.19;;;4.58;76.89
59009;BME280;44794;42.652;23.318;2023-02-19T03:04:09;94793.56;;;4.48;77.34
59009;BME280;44794;42.652;23.318;2023-02-19T03:06:36;94797.72;;;4.51;77.26
59009;BME280;44794;42.652;23.318;2023-02-19T03:09:23;94798.41;;;4.54;77.17
59009;BME280;44794;42.652;23.318;2023-02-19T03:11:56;94816.81;;;4.45;77.24
59009;BME280;44794;42.652;23.318;2023-02-19T03:14:48;94812.25;;;4.52;77.13
59009;BME280;44794;42.652;23.318;2023-02-19T03:17:40;94814.06;;;4.67;76.82
59009;BME280;44794;42.652;23.318;2023-02-19T03:20:28;94820.69;;;4.54;76.95
59009;BME280;44794;42.652;23.318;2023-02-19T03:22:58;94814.34;;;4.44;77.33
59009;BME280;44794;42.652;23.318;2023-02-19T03:25:27;94825.72;;;4.39;77.90
59009;BME280;44794;42.652;23.318;2023-02-19T03:28:14;94835.81;;;4.25;78.54
59009;BME280;44794;42.652;23.318;2023-02-19T03:30:46;94834.00;;;4.08;79.33
59009;BME280;44794;42.652;23.318;2023-02-19T03:33:17;94835.19;;;4.01;79.78
59009;BME280;44794;42.652;23.318;2023-02-19T03:35:48;94843.03;;;3.98;80.00
59009;BME280;44794;42.652;23.318;2023-02-19T03:38:28;94834.91;;;4.07;80.08
59009;BME280;44794;42.652;23.318;2023-02-19T03:43:37;94848.59;;;3.89;80.99
59009;BME280;44794;42.652;23.318;2023-02-19T03:46:25;94854.19;;;3.97;81.34
59009;BME280;44794;42.652;23.318;2023-02-19T03:48:58;94849.41;;;3.90;81.29
59009;BME280;44794;42.652;23.318;2023-02-19T03:56:37;94859.13;;;3.83;81.63
59009;BME280;44794;42.652;23.318;2023-02-19T04:01:49;94856.31;;;3.69;82.54
59009;BME280;44794;42.652;23.318;2023-02-19T04:04:38;94862.56;;;3.64;82.86
59009;BME280;44794;42.652;23.318;2023-02-19T04:07:08;94868.75;;;3.78;82.53
59009;BME280;44794;42.652;23.318;2023-02-19T04:09:36;94868.66;;;3.81;82.47
59009;BME280;44794;42.652;23.318;2023-02-19T04:12:05;94867.88;;;3.79;82.24
59009;BME280;44794;42.652;23.318;2023-02-19T04:14:51;94862.50;;;3.66;82.38
59009;BME280;44794;42.652;23.318;2023-02-19T04:17:23;94867.00;;;3.61;82.66
59009;BME280;44794;42.652;23.318;2023-02-19T04:19:51;94867.19;;;3.56;83.28
59009;BME280;44794;42.652;23.318;2023-02-19T04:22:18;94868.78;;;3.59;83.32
59009;BME280;44794;42.652;23.318;2023-02-19T04:24:49;94871.38;;;3.59;83.39
59009;BME280;44794;42.652;23.318;2023-02-19T04:27:16;94861.09;;;3.59;83.28
59009;BME280;44794;42.652;23.318;2023-02-19T04:29:42;94874.00;;;3.57;83.47
59009;BME280;44794;42.652;23.318;2023-02-19T04:32:09;94872.34;;;3.56;83.48
59009;BME280;44794;42.652;23.318;2023-02-19T04:34:35;94869.97;;;3.52;83.45
59009;BME280;44794;42.652;23.318;2023-02-19T04:37:01;94871.13;;;3.45;83.83
59009;BME280;44794;42.652;23.318;2023-02-19T04:39:26;94872.66;;;3.49;84.09
59009;BME280;44794;42.652;23.318;2023-02-19T04:41:52;94846.34;;;6.23;90.77
59009;BME280;44794;42.652;23.318;2023-02-19T04:44:17;94882.88;;;6.31;78.67
59009;BME280;44794;42.652;23.318;2023-02-19T04:46:42;94896.34;;;5.71;75.23
59009;BME280;44794;42.652;23.318;2023-02-19T04:49:08;94884.78;;;7.49;74.13
59009;BME280;44794;42.652;23.318;2023-02-19T04:51:33;94893.19;;;8.10;61.63
59009;BME280;44794;42.652;23.318;2023-02-19T04:53:59;94896.13;;;7.46;62.60
59009;BME280;44794;42.652;23.318;2023-02-19T04:56:24;94894.47;;;6.85;64.49
59009;BME280;44794;42.652;23.318;2023-02-19T04:58:49;94889.03;;;6.44;66.01
59009;BME280;44794;42.652;23.318;2023-02-19T05:01:15;94897.34;;;6.01;67.83
59009;BME280;44794;42.652;23.318;2023-02-19T05:03:41;94894.81;;;5.67;69.69
59009;BME280;44794;42.652;23.318;2023-02-19T05:06:08;94902.56;;;5.50;70.99
59009;BME280;44794;42.652;23.318;2023-02-19T05:08:35;94900.72;;;5.18;72.48
59009;BME280;44794;42.652;23.318;2023-02-19T05:11:02;94891.69;;;5.10;73.92
59009;BME280;44794;42.652;23.318;2023-02-19T05:13:28;94892.69;;;5.08;73.74
59009;BME280;44794;42.652;23.318;2023-02-19T05:16:02;94897.34;;;5.00;74.60
59009;BME280;44794;42.652;23.318;2023-02-19T05:18:29;94895.78;;;4.97;74.99
59009;BME280;44794;42.652;23.318;2023-02-19T05:20:56;94898.84;;;4.87;74.98
59009;BME280;44794;42.652;23.318;2023-02-19T05:23:22;94900.06;;;4.61;75.69
59009;BME280;44794;42.652;23.318;2023-02-19T05:25:47;94903.25;;;4.48;76.54
59009;BME280;44794;42.652;23.318;2023-02-19T05:28:13;94895.53;;;4.48;77.70
59009;BME280;44794;42.652;23.318;2023-02-19T05:30:49;94901.25;;;4.36;78.26
59009;BME280;44794;42.652;23.318;2023-02-19T05:33:16;94905.81;;;4.66;77.72
59009;BME280;44794;42.652;23.318;2023-02-19T05:35:43;94894.94;;;4.43;78.18
59009;BME280;44794;42.652;23.318;2023-02-19T05:38:10;94910.25;;;4.81;77.47
59009;BME280;44794;42.652;23.318;2023-02-19T05:40:36;94918.50;;;4.88;76.68
59009;BME280;44794;42.652;23.318;2023-02-19T05:43:02;94924.97;;;4.96;76.48
59009;BME280;44794;42.652;23.318;2023-02-19T05:45:27;94918.25;;;5.11;76.18
59009;BME280;44794;42.652;23.318;2023-02-19T05:47:53;94917.69;;;5.22;75.42
59009;BME280;44794;42.652;23.318;2023-02-19T05:50:18;94915.81;;;5.26;75.00
59009;BME280;44794;42.652;23.318;2023-02-19T05:52:44;94921.78;;;5.43;74.54
59009;BME280;44794;42.652;23.318;2023-02-19T05:55:10;94915.88;;;5.58;73.98
59009;BME280;44794;42.652;23.318;2023-02-19T05:57:40;94922.19;;;5.87;72.55
59009;BME280;44794;42.652;23.318;2023-02-19T06:00:06;94929.38;;;5.97;72.50
59009;BME280;44794;42.652;23.318;2023-02-19T06:02:32;94934.81;;;6.08;71.77
59009;BME280;44794;42.652;23.318;2023-02-19T06:04:57;94944.34;;;6.38;70.00
59009;BME280;44794;42.652;23.318;2023-02-19T06:07:23;94944.22;;;6.57;69.41
59009;BME280;44794;42.652;23.318;2023-02-19T06:09:51;94947.34;;;6.78;67.60
59009;BME280;44794;42.652;23.318;2023-02-19T06:12:16;94953.66;;;7.04;66.70
59009;BME280;44794;42.652;23.318;2023-02-19T06:14:42;94960.16;;;7.26;65.65
59009;BME280;44794;42.652;23.318;2023-02-19T06:17:07;94962.44;;;7.46;65.00
59009;BME280;44794;42.652;23.318;2023-02-19T06:19:33;94963.09;;;7.65;63.94
59009;BME280;44794;42.652;23.318;2023-02-19T06:21:58;94958.03;;;7.77;62.96
59009;BME280;44794;42.652;23.318;2023-02-19T06:24:24;94962.38;;;8.35;61.30
59009;BME280;44794;42.652;23.318;2023-02-19T06:26:49;94969.19;;;8.64;60.28
59009;BME280;44794;42.652;23.318;2023-02-19T06:29:15;94970.47;;;8.99;59.07
59009;BME280;44794;42.652;23.318;2023-02-19T06:31:41;94965.22;;;9.27;59.37
59009;BME280;44794;42.652;23.318;2023-02-19T06:34:06;94971.97;;;9.43;57.78
59009;BME280;44794;42.652;23.318;2023-02-19T06:36:32;94964.66;;;9.88;56.16
59009;BME280;44794;42.652;23.318;2023-02-19T06:39:02;94969.47;;;10.07;55.20
59009;BME280;44794;42.652;23.318;2023-02-19T06:41:28;94969.72;;;10.16;55.03
59009;BME280;44794;42.652;23.318;2023-02-19T06:43:53;94965.78;;;10.23;54.50
59009;BME280;44794;42.652;23.318;2023-02-19T06:46:18;94956.03;;;10.27;54.23
59009;BME280;44794;42.652;23.318;2023-02-19T06:48:44;94964.97;;;10.35;53.79
59009;BME280;44794;42.652;23.318;2023-02-19T06:51:15;94957.69;;;10.40;53.45
59009;BME280;44794;42.652;23.318;2023-02-19T06:53:43;94969.66;;;10.55;52.61
59009;BME280;44794;42.652;23.318;2023-02-19T06:56:25;94973.81;;;10.70;52.14
59009;BME280;44794;42.652;23.318;2023-02-19T06:58:53;94972.13;;;10.69;52.40
59009;BME280;44794;42.652;23.318;2023-02-19T07:01:19;94970.59;;;10.79;52.21
59009;BME280;44794;42.652;23.318;2023-02-19T07:03:44;94970.06;;;10.74;51.88
59009;BME280;44794;42.652;23.318;2023-02-19T07:06:10;94978.69;;;10.62;52.42
59009;BME280;44794;42.652;23.318;2023-02-19T07:08:35;94986.38;;;10.51;52.36
59009;BME280;44794;42.652;23.318;2023-02-19T07:11:01;94977.84;;;10.49;52.24
59009;BME280;44794;42.652;23.318;2023-02-19T07:13:26;94976.81;;;10.51;52.31
59009;BME280;44794;42.652;23.318;2023-02-19T07:16:03;94971.31;;;10.31;52.52
59009;BME280;44794;42.652;23.318;2023-02-19T07:18:29;94980.97;;;10.29;52.77
59009;BME280;44794;42.652;23.318;2023-02-19T07:21:01;94980.09;;;10.29;52.31
59009;BME280;44794;42.652;23.318;2023-02-19T07:23:26;94974.69;;;10.19;52.33
59009;BME280;44794;42.652;23.318;2023-02-19T07:25:52;94962.16;;;10.26;52.09
59009;BME280;44794;42.652;23.318;2023-02-19T07:28:17;94968.38;;;10.11;52.64
59009;BME280;44794;42.652;23.318;2023-02-19T07:30:43;94969.81;;;10.15;52.56
59009;BME280;44794;42.652;23.318;2023-02-19T07:33:09;94959.97;;;10.20;52.05
59009;BME280;44794;42.652;23.318;2023-02-19T07:35:34;94967.56;;;10.35;51.81
59009;BME280;44794;42.652;23.318;2023-02-19T07:38:00;94960.91;;;10.44;51.69
59009;BME280;44794;42.652;23.318;2023-02-19T07:40:25;94956.16;;;10.50;51.29
59009;BME280;44794;42.652;23.318;2023-02-19T07:42:50;94953.56;;;10.50;51.37
59009;BME280;44794;42.652;23.318;2023-02-19T07:45:16;94950.44;;;10.70;51.26
59009;BME280;44794;42.652;23.318;2023-02-19T07:47:42;94951.78;;;10.75;51.00
59009;BME280;44794;42.652;23.318;2023-02-19T07:50:08;94955.00;;;10.79;51.02
59009;BME280;44794;42.652;23.318;2023-02-19T07:52:33;94949.56;;;10.94;50.84
59009;BME280;44794;42.652;23.318;2023-02-19T07:54:58;94946.03;;;10.95;50.70
59009;BME280;44794;42.652;23.318;2023-02-19T07:57:26;94943.69;;;11.16;50.37
59009;BME280;44794;42.652;23.318;2023-02-19T07:59:52;94949.19;;;11.23;50.17
59009;BME280;44794;42.652;23.318;2023-02-19T08:02:19;94946.97;;;11.42;49.36
59009;BME280;44794;42.652;23.318;2023-02-19T08:05:04;94950.78;;;11.49;49.10
59009;BME280;44794;42.652;23.318;2023-02-19T08:07:31;94948.38;;;11.59;48.70
59009;BME280;44794;42.652;23.318;2023-02-19T08:09:57;94939.97;;;11.79;48.60
59009;BME280;44794;42.652;23.318;2023-02-19T08:12:41;94945.75;;;11.82;48.17
59009;BME280;44794;42.652;23.318;2023-02-19T08:15:42;94930.97;;;11.83;48.53
59009;BME280;44794;42.652;23.318;2023-02-19T08:18:08;94940.50;;;11.95;48.27
59009;BME280;44794;42.652;23.318;2023-02-19T08:20:34;94943.34;;;12.02;48.11
59009;BME280;44794;42.652;23.318;2023-02-19T08:23:00;94944.56;;;12.09;47.74
59009;BME280;44794;42.652;23.318;2023-02-19T08:25:25;94947.81;;;12.24;48.08
59009;BME280;44794;42.652;23.318;2023-02-19T08:27:50;94946.41;;;12.31;47.93
59009;BME280;44794;42.652;23.318;2023-02-19T08:30:16;94944.75;;;12.41;48.06
59009;BME280;44794;42.652;23.318;2023-02-19T08:32:42;94940.75;;;12.48;47.70
59009;BME280;44794;42.652;23.318;2023-02-19T08:35:07;94946.84;;;12.70;47.40
59009;BME280;44794;42.652;23.318;2023-02-19T08:37:32;94938.34;;;12.90;47.56
59009;BME280;44794;42.652;23.318;2023-02-19T08:39:58;94938.44;;;13.21;46.69
59009;BME280;44794;42.652;23.318;2023-02-19T08:42:24;94941.72;;;13.45;46.50
59009;BME280;44794;42.652;23.318;2023-02-19T08:44:50;94946.22;;;13.54;45.73
59009;BME280;44794;42.652;23.318;2023-02-19T08:47:15;94935.53;;;13.57;44.80
59009;BME280;44794;42.652;23.318;2023-02-19T08:49:41;94928.16;;;13.62;44.38
59009;BME280;44794;42.652;23.318;2023-02-19T08:52:06;94935.50;;;13.68;44.19
59009;BME280;44794;42.652;23.318;2023-02-19T08:54:31;94932.66;;;13.71;43.83
59009;BME280;44794;42.652;23.318;2023-02-19T08:56:57;94924.94;;;13.69;44.29
59009;BME280;44794;42.652;23.318;2023-02-19T08:59:22;94919.81;;;13.79;43.60
59009;BME280;44794;42.652;23.318;2023-02-19T09:01:48;94910.78;;;13.83;44.61
59009;BME280;44794;42.652;23.318;2023-02-19T09:04:13;94910.13;;;13.90;45.26
59009;BME280;44794;42.652;23.318;2023-02-19T09:06:39;94912.34;;;14.06;44.91
59009;BME280;44794;42.652;23.318;2023-02-19T09:09:04;94901.72;;;13.87;44.93
59009;BME280;44794;42.652;23.318;2023-02-19T09:11:30;94895.91;;;13.94;44.80
59009;BME280;44794;42.652;23.318;2023-02-19T09:13:56;94894.97;;;13.84;44.75
59009;BME280;44794;42.652;23.318;2023-02-19T09:16:21;94893.94;;;13.76;45.18
59009;BME280;44794;42.652;23.318;2023-02-19T09:18:47;94888.94;;;13.84;45.14
59009;BME280;44794;42.652;23.318;2023-02-19T09:21:12;94865.50;;;13.93;44.96
59009;BME280;44794;42.652;23.318;2023-02-19T09:23:38;94886.06;;;13.87;44.54
59009;BME280;44794;42.652;23.318;2023-02-19T09:26:04;94884.88;;;13.91;44.67
59009;BME280;44794;42.652;23.318;2023-02-19T09:28:32;94880.34;;;13.93;44.45
59009;BME280;44794;42.652;23.318;2023-02-19T09:31:06;94893.94;;;14.07;44.63
59009;BME280;44794;42.652;23.318;2023-02-19T09:33:31;94875.16;;;14.13;44.13
59009;BME280;44794;42.652;23.318;2023-02-19T09:36:00;94880.44;;;14.23;43.89
59009;BME280;44794;42.652;23.318;2023-02-19T09:38:26;94889.44;;;14.29;43.50
59009;BME280;44794;42.652;23.318;2023-02-19T09:40:52;94888.19;;;14.24;43.04
59009;BME280;44794;42.652;23.318;2023-02-19T09:43:19;94877.31;;;14.28;42.82
59009;BME280;44794;42.652;23.318;2023-02-19T09:45:47;94876.59;;;14.47;42.82
59009;BME280;44794;42.652;23.318;2023-02-19T09:48:13;94871.59;;;14.64;42.33
59009;BME280;44794;42.652;23.318;2023-02-19T09:50:44;94873.88;;;14.78;42.13
59009;BME280;44794;42.652;23.318;2023-02-19T09:53:19;94873.19;;;14.76;41.93
59009;BME280;44794;42.652;23.318;2023-02-19T09:55:46;94853.66;;;14.80;41.74
59009;BME280;44794;42.652;23.318;2023-02-19T09:58:32;94861.66;;;14.79;41.53
59009;BME280;44794;42.652;23.318;2023-02-19T10:01:00;94849.16;;;14.82;41.32
59009;BME280;44794;42.652;23.318;2023-02-19T10:03:29;94846.38;;;14.84;41.25
59009;BME280;44794;42.652;23.318;2023-02-19T10:06:04;94829.53;;;15.06;41.12
59009;BME280;44794;42.652;23.318;2023-02-19T10:08:32;94831.22;;;15.17;40.86
59009;BME280;44794;42.652;23.318;2023-02-19T10:10:59;94832.22;;;15.25;40.28
59009;BME280;44794;42.652;23.318;2023-02-19T10:13:30;94827.69;;;15.27;40.15
59009;BME280;44794;42.652;23.318;2023-02-19T10:15:58;94821.59;;;15.27;40.31
59009;BME280;44794;42.652;23.318;2023-02-19T10:18:27;94813.50;;;15.30;40.28
59009;BME280;44794;42.652;23.318;2023-02-19T10:20:54;94805.09;;;15.55;40.10
59009;BME280;44794;42.652;23.318;2023-02-19T10:23:20;94811.59;;;15.51;39.81
59009;BME280;44794;42.652;23.318;2023-02-19T10:25:57;94805.09;;;15.36;39.90
59009;BME280;44794;42.652;23.318;2023-02-19T10:28:29;94798.75;;;15.29;39.97
59009;BME280;44794;42.652;23.318;2023-02-19T10:30:57;94793.81;;;15.35;39.79
59009;BME280;44794;42.652;23.318;2023-02-19T10:33:23;94787.88;;;15.33;40.36
59009;BME280;44794;42.652;23.318;2023-02-19T10:35:57;94788.25;;;15.10;40.45
59009;BME280;44794;42.652;23.318;2023-02-19T10:38:29;94773.03;;;14.95;40.87
59009;BME280;44794;42.652;23.318;2023-02-19T10:41:14;94766.75;;;14.97;40.61
59009;BME280;44794;42.652;23.318;2023-02-19T10:43:48;94763.97;;;14.89;40.80
59009;BME280;44794;42.652;23.318;2023-02-19T10:46:22;94755.03;;;15.01;40.86
59009;BME280;44794;42.652;23.318;2023-02-19T10:48:53;94749.56;;;15.13;40.72
59009;BME280;44794;42.652;23.318;2023-02-19T10:51:19;94751.06;;;15.06;40.17
59009;BME280;44794;42.652;23.318;2023-02-19T10:56:28;94748.06;;;15.20;40.55
59009;BME280;44794;42.652;23.318;2023-02-19T10:59:21;94743.09;;;15.27;40.28
59009;BME280;44794;42.652;23.318;2023-02-19T11:02:14;94731.16;;;15.43;39.95
59009;BME280;44794;42.652;23.318;2023-02-19T11:04:40;94724.94;;;15.54;39.81
59009;BME280;44794;42.652;23.318;2023-02-19T11:07:10;94725.31;;;15.77;39.44
59009;BME280;44794;42.652;23.318;2023-02-19T11:09:39;94716.22;;;15.81;38.66
59009;BME280;44794;42.652;23.318;2023-02-19T11:12:07;94710.25;;;15.89;38.65
59009;BME280;44794;42.652;23.318;2023-02-19T11:14:33;94710.09;;;16.00;38.69
59009;BME280;44794;42.652;23.318;2023-02-19T11:17:01;94705.47;;;16.21;38.69
59009;BME280;44794;42.652;23.318;2023-02-19T11:19:41;94691.97;;;16.16;38.82
59009;BME280;44794;42.652;23.318;2023-02-19T11:28:16;94663.56;;;16.30;37.53
59009;BME280;44794;42.652;23.318;2023-02-19T11:30:45;94671.91;;;16.43;37.69
59009;BME280;44794;42.652;23.318;2023-02-19T11:33:24;94665.16;;;16.31;37.44
59009;BME280;44794;42.652;23.318;2023-02-19T11:35:57;94655.63;;;16.40;37.54
59009;BME280;44794;42.652;23.318;2023-02-19T11:38:24;94651.44;;;16.47;36.63
59009;BME280;44794;42.652;23.318;2023-02-19T11:46:19;94637.09;;;16.68;36.41
59009;BME280;44794;42.652;23.318;2023-02-19T11:48:53;94627.56;;;16.67;35.88
59009;BME280;44794;42.652;23.318;2023-02-19T11:57:18;94621.44;;;16.76;35.22
59009;BME280;44794;42.652;23.318;2023-02-19T12:08:34;94603.06;;;17.11;36.69
59009;BME280;44794;42.652;23.318;2023-02-19T12:22:32;94589.66;;;17.14;36.53
59009;BME280;44794;42.652;23.318;2023-02-19T12:36:50;94567.63;;;17.49;35.53
59009;BME280;44794;42.652;23.318;2023-02-19T12:42:07;94561.31;;;17.34;35.79
59009;BME280;44794;42.652;23.318;2023-02-19T12:44:42;94562.28;;;17.33;35.88
59009;BME280;44794;42.652;23.318;2023-02-19T12:47:19;94549.06;;;17.26;35.79
59009;BME280;44794;42.652;23.318;2023-02-19T12:50:01;94536.91;;;17.25;35.92
59009;BME280;44794;42.652;23.318;2023-02-19T12:52:36;94527.84;;;17.19;36.22
59009;BME280;44794;42.652;23.318;2023-02-19T12:55:23;94527.94;;;17.27;35.12
59009;BME280;44794;42.652;23.318;2023-02-19T12:57:51;94525.16;;;17.29;35.50
59009;BME280;44794;42.652;23.318;2023-02-19T13:00:37;94518.91;;;17.30;35.65
59009;BME280;44794;42.652;23.318;2023-02-19T13:05:52;94506.22;;;17.25;35.34
59009;BME280;44794;42.652;23.318;2023-02-19T13:11:00;94502.88;;;17.33;35.38
59009;BME280;44794;42.652;23.318;2023-02-19T13:13:49;94503.69;;;17.33;35.54
59009;BME280;44794;42.652;23.318;2023-02-19T13:16:18;94499.56;;;17.31;35.52
59009;BME280;44794;42.652;23.318;2023-02-19T13:18:53;94497.78;;;17.31;35.82
59009;BME280;44794;42.652;23.318;2023-02-19T13:21:23;94495.06;;;17.40;35.27
59009;BME280;44794;42.652;23.318;2023-02-19T13:24:15;94488.50;;;17.44;35.05
59009;BME280;44794;42.652;23.318;2023-02-19T13:35:20;94473.47;;;17.54;34.79
59009;BME280;44794;42.652;23.318;2023-02-19T13:37:48;94470.19;;;17.60;34.70
59009;BME280;44794;42.652;23.318;2023-02-19T13:40:34;94472.03;;;17.68;34.31
59009;BME280;44794;42.652;23.318;2023-02-19T13:43:05;94459.25;;;17.73;34.45
59009;BME280;44794;42.652;23.318;2023-02-19T13:45:40;94467.47;;;17.78;34.05
59009;BME280;44794;42.652;23.318;2023-02-19T13:48:24;94460.28;;;17.80;33.94
59009;BME280;44794;42.652;23.318;2023-02-19T14:17:42;94444.38;;;17.48;35.14
59009;BME280;44794;42.652;23.318;2023-02-19T14:25:41;94422.34;;;17.41;34.98
59009;BME280;44794;42.652;23.318;2023-02-19T14:33:34;94416.72;;;17.77;34.76
59009;BME280;44794;42.652;23.318;2023-02-19T14:38:54;94411.88;;;18.06;33.20
59009;BME280;44794;42.652;23.318;2023-02-19T14:41:21;94409.09;;;18.08;33.00
59009;BME280;44794;42.652;23.318;2023-02-19T14:43:49;94412.72;;;18.07;33.47
59009;BME280;44794;42.652;23.318;2023-02-19T14:46:27;94404.97;;;18.13;33.83
59009;BME280;44794;42.652;23.318;2023-02-19T14:48:54;94402.19;;;17.99;34.07
59009;BME280;44794;42.652;23.318;2023-02-19T14:51:30;94409.53;;;17.87;34.00
59009;BME280;44794;42.652;23.318;2023-02-19T14:53:57;94399.34;;;17.84;34.43
59009;BME280;44794;42.652;23.318;2023-02-19T14:56:28;94398.69;;;17.74;34.40
59009;BME280;44794;42.652;23.318;2023-02-19T15:01:43;94392.41;;;17.67;34.35
59009;BME280;44794;42.652;23.318;2023-02-19T15:04:21;94386.47;;;17.57;34.80
59009;BME280;44794;42.652;23.318;2023-02-19T15:06:46;94387.31;;;17.58;35.00
59009;BME280;44794;42.652;23.318;2023-02-19T15:09:12;94376.44;;;17.53;35.27
59009;BME280;44794;42.652;23.318;2023-02-19T15:11:40;94388.09;;;17.50;35.51
59009;BME280;44794;42.652;23.318;2023-02-19T15:14:16;94378.69;;;17.40;35.29
59009;BME280;44794;42.652;23.318;2023-02-19T15:16:43;94379.25;;;17.26;35.29
59009;BME280;44794;42.652;23.318;2023-02-19T15:19:09;94374.84;;;17.27;35.58
59009;BME280;44794;42.652;23.318;2023-02-19T15:21:39;94377.75;;;17.16;35.67
59009;BME280;44794;42.652;23.318;2023-02-19T15:24:10;94378.03;;;17.05;35.94
59009;BME280;44794;42.652;23.318;2023-02-19T15:26:40;94372.69;;;16.89;36.22
59009;BME280;44794;42.652;23.318;2023-02-19T15:29:14;94371.03;;;16.88;36.40